Time;durP1;ratioP1;P1;durP2;ratioP2;P2;SDS_P1;SDS_P2;PMS_P1;PMS_P2;Temp;Humidity;BMP_temperature;BMP_pressure;BME280_temperature;BME280_humidity;BME280_pressure;Samples;Min_cycle;Max_cycle;Signal;HPM_P1;HPM_P2
2024/02/26 00:01:05;;;;;;;4.70;2.35;;;;;;;;;;4997575;28;20030;-82
2024/02/26 00:03:52;;;;;;;3.97;2.40;;;;;;;;;;4991746;28;20038;-81
2024/02/26 00:06:39;;;;;;;3.45;1.92;;;;;;;;;;4990936;28;20057;-81
2024/02/26 00:09:24;;;;;;;4.68;1.67;;;;;;;;;;5010870;28;20041;-82
2024/02/26 00:12:09;;;;;;;4.53;2.10;;;;;;;;;;5002489;28;20464;-81
2024/02/26 00:14:58;;;;;;;3.42;1.70;;;;;;;;;;4997274;28;20059;-82
2024/02/26 00:17:44;;;;;;;5.47;2.95;;;;;;;;;;5010955;28;20419;-83
2024/02/26 00:20:30;;;;;;;4.10;2.40;;;;;;;;;;5010361;28;20484;-83
2024/02/26 00:23:16;;;;;;;4.13;2.03;;;;;;;;;;4992352;28;20026;-81
2024/02/26 00:26:01;;;;;;;4.03;2.45;;;;;;;;;;5002718;28;20145;-83
2024/02/26 00:28:46;;;;;;;4.45;1.92;;;;;;;;;;4991611;28;20022;-83
2024/02/26 00:31:31;;;;;;;6.82;2.17;;;;;;;;;;4995594;28;20517;-84
2024/02/26 00:34:17;;;;;;;3.20;1.90;;;;;;;;;;5010383;28;20075;-83
2024/02/26 00:37:02;;;;;;;4.82;2.45;;;;;;;;;;4998563;28;20152;-84
2024/02/26 00:39:47;;;;;;;4.47;2.38;;;;;;;;;;4978373;28;20022;-83
2024/02/26 00:42:32;;;;;;;3.38;1.80;;;;;;;;;;4987773;28;20034;-83
2024/02/26 00:45:18;;;;;;;5.38;2.05;;;;;;;;;;5005806;28;20025;-83
2024/02/26 00:48:07;;;;;;;2.67;1.60;;;;;;;;;;5010707;28;20041;-82
2024/02/26 00:50:52;;;;;;;5.53;1.75;;;;;;;;;;4999672;28;20917;-83
2024/02/26 00:53:37;;;;;;;4.32;2.10;;;;;;;;;;4990951;28;20030;-83
2024/02/26 00:56:22;;;;;;;4.47;1.92;;;;;;;;;;5001928;28;20827;-83
2024/02/26 00:59:08;;;;;;;3.78;1.83;;;;;;;;;;4990664;28;20061;-82
2024/02/26 01:01:53;;;;;;;3.35;1.90;;;;;;;;;;4991065;28;20038;-83
2024/02/26 01:04:38;;;;;;;2.35;1.70;;;;;;;;;;4988756;28;20084;-83
2024/02/26 01:07:24;;;;;;;3.67;2.05;;;;;;;;;;4988725;28;20061;-83
2024/02/26 01:10:09;;;;;;;4.22;2.15;;;;;;;;;;5010661;28;20124;-83
2024/02/26 01:12:54;;;;;;;4.40;2.20;;;;;;;;;;5004252;28;20101;-83
2024/02/26 01:15:40;;;;;;;3.83;1.75;;;;;;;;;;4990803;28;20465;-83
2024/02/26 01:18:25;;;;;;;3.40;2.13;;;;;;;;;;4977057;28;20376;-82
2024/02/26 01:21:11;;;;;;;4.50;1.90;;;;;;;;;;5008716;28;20348;-82
2024/02/26 01:23:56;;;;;;;2.97;1.85;;;;;;;;;;5010600;28;20100;-82
2024/02/26 01:26:41;;;;;;;4.10;2.03;;;;;;;;;;5007813;28;20018;-82
2024/02/26 01:29:26;;;;;;;5.60;2.25;;;;;;;;;;5009616;28;20041;-83
2024/02/26 01:32:11;;;;;;;2.65;1.90;;;;;;;;;;5010203;28;20021;-84
2024/02/26 01:34:57;;;;;;;3.83;2.20;;;;;;;;;;5013764;28;20104;-83
2024/02/26 01:37:42;;;;;;;3.17;1.92;;;;;;;;;;5003703;28;20440;-83
2024/02/26 01:40:27;;;;;;;3.28;1.75;;;;;;;;;;4994404;28;20025;-83
2024/02/26 01:43:13;;;;;;;4.50;2.08;;;;;;;;;;4994093;28;20088;-83
2024/02/26 01:45:58;;;;;;;3.25;1.80;;;;;;;;;;4993941;28;20460;-83
2024/02/26 01:48:45;;;;;;;3.10;1.50;;;;;;;;;;4993861;28;20516;-83
2024/02/26 01:51:30;;;;;;;5.85;2.00;;;;;;;;;;5007630;28;20465;-82
2024/02/26 01:54:16;;;;;;;3.53;1.90;;;;;;;;;;5012776;28;20030;-83
2024/02/26 01:57:01;;;;;;;4.90;2.08;;;;;;;;;;5025800;28;20512;-83
2024/02/26 01:59:47;;;;;;;2.38;1.55;;;;;;;;;;5013322;28;20025;-83
2024/02/26 02:02:32;;;;;;;3.50;1.60;;;;;;;;;;5012897;28;20035;-83
2024/02/26 02:05:20;;;;;;;7.30;1.77;;;;;;;;;;5004546;28;20048;-83
2024/02/26 02:08:05;;;;;;;2.95;1.75;;;;;;;;;;5003413;28;20034;-82
2024/02/26 02:10:51;;;;;;;3.08;1.70;;;;;;;;;;5011095;28;20488;-82
2024/02/26 02:13:36;;;;;;;4.38;1.67;;;;;;;;;;5028537;28;20108;-82
2024/02/26 02:16:21;;;;;;;2.53;1.60;;;;;;;;;;4995948;28;20038;-82
2024/02/26 02:19:06;;;;;;;3.38;1.70;;;;;;;;;;5005657;28;20037;-83
2024/02/26 02:21:52;;;;;;;3.67;1.83;;;;;;;;;;4995541;28;20030;-82
2024/02/26 02:24:37;;;;;;;2.60;1.70;;;;;;;;;;5000784;28;20579;-82
2024/02/26 02:27:23;;;;;;;6.40;2.08;;;;;;;;;;5011352;28;20087;-83
2024/02/26 02:30:08;;;;;;;3.33;2.10;;;;;;;;;;5013011;28;20065;-82
2024/02/26 02:32:55;;;;;;;2.45;1.33;;;;;;;;;;5003385;28;20045;-82
2024/02/26 02:35:40;;;;;;;4.28;2.15;;;;;;;;;;4993509;28;20045;-83
2024/02/26 02:38:25;;;;;;;6.30;2.38;;;;;;;;;;5002861;28;20025;-82
2024/02/26 02:41:11;;;;;;;3.80;2.10;;;;;;;;;;4999598;28;20025;-81
2024/02/26 02:43:56;;;;;;;4.18;1.90;;;;;;;;;;5012822;28;20230;-84
2024/02/26 02:46:41;;;;;;;3.03;1.70;;;;;;;;;;4993249;28;20072;-81
2024/02/26 02:49:27;;;;;;;1.77;1.33;;;;;;;;;;4994188;28;20145;-83
2024/02/26 02:52:12;;;;;;;4.47;1.85;;;;;;;;;;4994116;28;20026;-81
2024/02/26 02:54:58;;;;;;;1.88;1.52;;;;;;;;;;4986701;28;20455;-83
2024/02/26 02:57:44;;;;;;;3.88;1.77;;;;;;;;;;5010881;28;20030;-82
2024/02/26 03:00:30;;;;;;;3.60;1.45;;;;;;;;;;5012596;28;20025;-84
2024/02/26 03:03:15;;;;;;;2.67;1.70;;;;;;;;;;5015158;28;20053;-83
2024/02/26 03:06:00;;;;;;;2.50;1.92;;;;;;;;;;5001523;28;20042;-83
2024/02/26 03:08:45;;;;;;;3.10;1.75;;;;;;;;;;4997146;28;20025;-83
2024/02/26 03:11:31;;;;;;;3.17;1.70;;;;;;;;;;5010534;28;20022;-83
2024/02/26 03:14:16;;;;;;;6.82;1.50;;;;;;;;;;4982635;28;20030;-83
2024/02/26 03:17:03;;;;;;;4.00;1.75;;;;;;;;;;4995468;28;20018;-83
2024/02/26 03:19:53;;;;;;;4.38;2.08;;;;;;;;;;4996227;28;20026;-83
2024/02/26 03:22:38;;;;;;;4.13;2.30;;;;;;;;;;4995576;28;20022;-82
2024/02/26 03:25:25;;;;;;;3.08;1.50;;;;;;;;;;5010631;28;20029;-83
2024/02/26 03:28:10;;;;;;;2.97;1.73;;;;;;;;;;5012199;28;20056;-82
2024/02/26 03:30:55;;;;;;;2.03;1.48;;;;;;;;;;4995392;28;20029;-83
2024/02/26 03:33:40;;;;;;;3.45;1.65;;;;;;;;;;5003424;28;20018;-83
2024/02/26 03:36:26;;;;;;;1.88;1.40;;;;;;;;;;5014273;28;20120;-83
2024/02/26 03:39:11;;;;;;;1.45;1.33;;;;;;;;;;5008446;28;20029;-83
2024/02/26 03:41:57;;;;;;;2.88;1.67;;;;;;;;;;4994784;28;20032;-82
2024/02/26 03:44:42;;;;;;;2.65;1.50;;;;;;;;;;5013870;28;20066;-83
2024/02/26 03:47:27;;;;;;;3.70;2.08;;;;;;;;;;5013611;28;20546;-83
2024/02/26 03:50:13;;;;;;;3.25;1.80;;;;;;;;;;4995856;28;20034;-82
2024/02/26 03:52:58;;;;;;;6.97;2.53;;;;;;;;;;5000261;28;20022;-83
2024/02/26 03:55:43;;;;;;;2.65;1.63;;;;;;;;;;5014153;28;20057;-82
2024/02/26 03:58:28;;;;;;;2.88;1.48;;;;;;;;;;5013593;28;20411;-83
2024/02/26 04:01:14;;;;;;;3.42;1.80;;;;;;;;;;5015276;28;20061;-83
2024/02/26 04:04:00;;;;;;;3.38;1.60;;;;;;;;;;5003610;28;20473;-83
2024/02/26 04:06:45;;;;;;;1.63;1.38;;;;;;;;;;5027151;28;20079;-83
2024/02/26 04:09:31;;;;;;;3.65;1.75;;;;;;;;;;5009094;28;20021;-82
2024/02/26 04:12:16;;;;;;;4.20;1.70;;;;;;;;;;4991785;28;20092;-84
2024/02/26 04:15:02;;;;;;;4.30;1.95;;;;;;;;;;4991920;28;20018;-83
2024/02/26 04:17:47;;;;;;;5.05;1.92;;;;;;;;;;4991578;28;20102;-82
2024/02/26 04:20:32;;;;;;;4.97;1.90;;;;;;;;;;5009002;28;20033;-84
2024/02/26 04:23:19;;;;;;;8.65;2.53;;;;;;;;;;4991614;28;20030;-84
2024/02/26 04:26:04;;;;;;;4.43;2.25;;;;;;;;;;5006208;28;20026;-83
2024/02/26 04:28:50;;;;;;;6.20;2.50;;;;;;;;;;4992809;28;20076;-84
2024/02/26 04:31:37;;;;;;;20.90;3.85;;;;;;;;;;4992262;28;20056;-84
2024/02/26 04:34:22;;;;;;;5.75;2.72;;;;;;;;;;4998240;28;20114;-83
2024/02/26 04:37:07;;;;;;;4.05;1.58;;;;;;;;;;5010946;28;20585;-83
2024/02/26 04:39:52;;;;;;;3.58;1.58;;;;;;;;;;5011021;28;20476;-83
2024/02/26 04:42:38;;;;;;;3.85;1.88;;;;;;;;;;4993113;28;20021;-84
2024/02/26 04:45:23;;;;;;;4.90;1.80;;;;;;;;;;5002349;28;20087;-83
2024/02/26 04:48:08;;;;;;;2.15;1.40;;;;;;;;;;5011309;28;20041;-83
2024/02/26 04:50:54;;;;;;;2.80;1.52;;;;;;;;;;4999977;28;20033;-83
2024/02/26 04:53:39;;;;;;;3.50;2.13;;;;;;;;;;5019455;28;20549;-83
2024/02/26 04:56:25;;;;;;;2.22;1.40;;;;;;;;;;5008765;28;20495;-83
2024/02/26 04:59:10;;;;;;;3.28;1.67;;;;;;;;;;5002261;28;20030;-83
2024/02/26 05:01:55;;;;;;;2.42;1.38;;;;;;;;;;4991352;28;20169;-83
2024/02/26 05:04:41;;;;;;;3.47;1.45;;;;;;;;;;4997071;28;20021;-82
2024/02/26 05:07:26;;;;;;;7.05;1.60;;;;;;;;;;5012991;28;20418;-81
2024/02/26 05:10:11;;;;;;;2.30;1.30;;;;;;;;;;5014191;28;20041;-82
2024/02/26 05:12:57;;;;;;;1.65;1.50;;;;;;;;;;5015244;28;20136;-81
2024/02/26 05:15:43;;;;;;;2.97;1.85;;;;;;;;;;5010680;28;20041;-81
2024/02/26 05:18:28;;;;;;;4.65;1.55;;;;;;;;;;5009529;28;20021;-81
2024/02/26 05:21:13;;;;;;;4.82;1.80;;;;;;;;;;5004694;28;20026;-83
2024/02/26 05:23:58;;;;;;;3.72;1.83;;;;;;;;;;5022272;28;20045;-83
2024/02/26 05:26:45;;;;;;;2.92;1.25;;;;;;;;;;5004543;28;20500;-82
2024/02/26 05:29:30;;;;;;;3.00;1.73;;;;;;;;;;5005573;28;20552;-84
2024/02/26 05:32:16;;;;;;;3.17;1.85;;;;;;;;;;5000545;28;20022;-82
2024/02/26 05:35:03;;;;;;;4.25;1.80;;;;;;;;;;5023378;28;20400;-83
2024/02/26 05:37:48;;;;;;;3.38;1.88;;;;;;;;;;4995930;28;20026;-83
2024/02/26 05:40:34;;;;;;;3.33;1.65;;;;;;;;;;5000117;28;20034;-84
2024/02/26 05:43:20;;;;;;;5.10;2.33;;;;;;;;;;5013704;28;20044;-83
2024/02/26 05:46:05;;;;;;;3.13;1.80;;;;;;;;;;5010740;28;20026;-84
2024/02/26 05:48:52;;;;;;;3.75;2.00;;;;;;;;;;5029622;28;20042;-84
2024/02/26 05:51:38;;;;;;;2.72;1.80;;;;;;;;;;5031959;28;20036;-84
2024/02/26 05:54:24;;;;;;;3.38;2.22;;;;;;;;;;5032936;28;20037;-83
2024/02/26 05:57:09;;;;;;;4.15;1.92;;;;;;;;;;5031847;28;20089;-82
2024/02/26 05:59:55;;;;;;;4.93;2.05;;;;;;;;;;5032694;28;20026;-82
2024/02/26 06:02:40;;;;;;;4.45;2.15;;;;;;;;;;4991513;28;20022;-83
2024/02/26 06:05:26;;;;;;;3.47;2.00;;;;;;;;;;5011569;28;20082;-80
2024/02/26 06:08:12;;;;;;;4.85;2.28;;;;;;;;;;5021089;28;20097;-82
2024/02/26 06:10:57;;;;;;;4.97;2.25;;;;;;;;;;5011403;28;20496;-82
2024/02/26 06:13:43;;;;;;;3.70;2.30;;;;;;;;;;4997505;28;20047;-80
2024/02/26 06:16:28;;;;;;;3.17;2.28;;;;;;;;;;5004560;28;20492;-81
2024/02/26 06:19:14;;;;;;;3.92;1.90;;;;;;;;;;4999456;28;20133;-80
2024/02/26 06:21:59;;;;;;;6.35;2.45;;;;;;;;;;5000913;28;20301;-80
2024/02/26 06:24:45;;;;;;;5.00;2.28;;;;;;;;;;5002344;28;20018;-80
2024/02/26 06:27:30;;;;;;;3.03;1.70;;;;;;;;;;5010486;28;20447;-83
2024/02/26 06:30:16;;;;;;;3.75;2.20;;;;;;;;;;5021256;28;20072;-82
2024/02/26 06:33:02;;;;;;;7.03;2.30;;;;;;;;;;5037841;28;20025;-82
2024/02/26 06:35:48;;;;;;;6.10;2.47;;;;;;;;;;5021794;28;20416;-82
2024/02/26 06:38:33;;;;;;;3.67;2.33;;;;;;;;;;5027160;28;20060;-82
2024/02/26 06:41:19;;;;;;;4.22;2.25;;;;;;;;;;5024223;28;20109;-83
2024/02/26 06:44:05;;;;;;;5.22;2.65;;;;;;;;;;5026891;28;20014;-82
2024/02/26 06:47:01;;;;;;;5.78;2.35;;;;;;;;;;5007411;28;20637;-83
2024/02/26 06:49:47;;;;;;;8.90;3.25;;;;;;;;;;5005653;28;20152;-83
2024/02/26 06:52:32;;;;;;;5.43;2.78;;;;;;;;;;5003806;28;20072;-83
2024/02/26 06:55:17;;;;;;;7.97;2.47;;;;;;;;;;5011615;28;20037;-82
2024/02/26 06:58:20;;;;;;;5.50;2.35;;;;;;;;;;5000762;28;20025;-82
2024/02/26 07:01:08;;;;;;;4.53;2.17;;;;;;;;;;4996739;28;20646;-82
2024/02/26 07:03:53;;;;;;;4.97;1.95;;;;;;;;;;5013259;28;20028;-84
2024/02/26 07:06:38;;;;;;;4.25;2.47;;;;;;;;;;4997462;28;20013;-83
2024/02/26 07:09:23;;;;;;;4.47;2.90;;;;;;;;;;5012597;28;20369;-82
2024/02/26 07:12:09;;;;;;;4.10;2.40;;;;;;;;;;5012268;28;20052;-83
2024/02/26 07:14:54;;;;;;;7.40;3.13;;;;;;;;;;5009004;28;20296;-84
2024/02/26 07:17:46;;;;;;;5.78;2.78;;;;;;;;;;5016837;28;20086;-86
2024/02/26 07:20:32;;;;;;;8.15;3.30;;;;;;;;;;4991326;28;20107;-87
2024/02/26 07:23:17;;;;;;;8.93;2.95;;;;;;;;;;5030497;28;20026;-88
2024/02/26 07:26:03;;;;;;;7.22;3.38;;;;;;;;;;5001012;28;20037;-88
2024/02/26 07:28:48;;;;;;;8.10;2.63;;;;;;;;;;5015796;28;20017;-86
2024/02/26 07:31:33;;;;;;;5.25;2.85;;;;;;;;;;5034475;28;20387;-85
2024/02/26 07:34:19;;;;;;;6.45;2.83;;;;;;;;;;5024144;28;20028;-84
2024/02/26 07:37:04;;;;;;;6.78;2.40;;;;;;;;;;5011841;28;20029;-84
2024/02/26 07:39:49;;;;;;;5.18;2.55;;;;;;;;;;5032617;28;20616;-84
2024/02/26 07:42:34;;;;;;;6.40;3.33;;;;;;;;;;5011504;28;20421;-89
2024/02/26 07:45:20;;;;;;;5.75;2.40;;;;;;;;;;5018569;28;20106;-85
2024/02/26 07:48:06;;;;;;;5.55;2.78;;;;;;;;;;5004123;28;20060;-86
2024/02/26 07:50:51;;;;;;;5.32;2.90;;;;;;;;;;4994154;28;20176;-85
2024/02/26 07:53:36;;;;;;;5.55;2.83;;;;;;;;;;5028583;28;20025;-86
2024/02/26 07:56:22;;;;;;;6.78;3.03;;;;;;;;;;5003294;28;20029;-84
2024/02/26 07:59:07;;;;;;;8.38;3.78;;;;;;;;;;5001814;28;20116;-84
2024/02/26 08:01:53;;;;;;;9.15;4.07;;;;;;;;;;5004153;28;20017;-83
2024/02/26 08:04:38;;;;;;;6.93;3.17;;;;;;;;;;5024903;28;20120;-84
2024/02/26 08:07:23;;;;;;;7.57;3.13;;;;;;;;;;4997669;28;20513;-84
2024/02/26 08:10:08;;;;;;;6.70;3.88;;;;;;;;;;5021705;28;20022;-84
2024/02/26 08:12:54;;;;;;;7.03;3.70;;;;;;;;;;4976049;28;20091;-83
2024/02/26 08:15:39;;;;;;;6.32;2.90;;;;;;;;;;4995769;28;20461;-88
2024/02/26 08:18:24;;;;;;;7.70;3.45;;;;;;;;;;4998230;28;20022;-85
2024/02/26 08:21:10;;;;;;;7.10;2.63;;;;;;;;;;4997318;28;20061;-90
2024/02/26 08:23:55;;;;;;;5.97;3.20;;;;;;;;;;4993814;28;20022;-87
2024/02/26 08:26:40;;;;;;;5.63;3.08;;;;;;;;;;4989109;28;20049;-84
2024/02/26 08:29:26;;;;;;;4.15;2.65;;;;;;;;;;5001552;28;20037;-84
2024/02/26 08:32:11;;;;;;;5.65;3.00;;;;;;;;;;4994391;28;20029;-84
2024/02/26 08:34:56;;;;;;;6.30;3.08;;;;;;;;;;4984074;28;20052;-81
2024/02/26 08:37:46;;;;;;;7.50;3.92;;;;;;;;;;4990065;28;20030;-83
2024/02/26 08:40:31;;;;;;;11.13;4.55;;;;;;;;;;4991444;28;20046;-85
2024/02/26 08:43:16;;;;;;;8.75;4.38;;;;;;;;;;4995815;28;20030;-85
2024/02/26 08:46:02;;;;;;;8.40;4.53;;;;;;;;;;4997168;28;20392;-84
2024/02/26 08:48:48;;;;;;;10.15;4.13;;;;;;;;;;4990713;28;20065;-85
2024/02/26 08:51:33;;;;;;;8.88;3.03;;;;;;;;;;4993757;28;20038;-84
2024/02/26 08:54:18;;;;;;;7.25;3.40;;;;;;;;;;4989279;28;20105;-85
2024/02/26 08:57:03;;;;;;;7.18;3.72;;;;;;;;;;4992939;28;20432;-85
2024/02/26 08:59:49;;;;;;;4.97;2.60;;;;;;;;;;4991308;28;20021;-86
2024/02/26 09:02:34;;;;;;;5.68;2.28;;;;;;;;;;4997425;28;20029;-85
2024/02/26 09:05:19;;;;;;;4.43;2.38;;;;;;;;;;4988010;28;20018;-83
2024/02/26 09:08:05;;;;;;;5.20;2.40;;;;;;;;;;4988524;28;20042;-83
2024/02/26 09:10:50;;;;;;;3.55;2.25;;;;;;;;;;4990081;28;20037;-83
2024/02/26 09:13:35;;;;;;;3.97;2.40;;;;;;;;;;4994802;28;20081;-84
2024/02/26 09:16:21;;;;;;;7.40;2.40;;;;;;;;;;4998133;28;20396;-86
2024/02/26 09:19:06;;;;;;;4.28;2.00;;;;;;;;;;4973488;28;20433;-84
2024/02/26 09:21:53;;;;;;;3.28;2.22;;;;;;;;;;4991293;28;20622;-83
2024/02/26 09:24:39;;;;;;;4.10;1.80;;;;;;;;;;4992684;28;20116;-84
2024/02/26 09:27:24;;;;;;;3.47;2.30;;;;;;;;;;4998177;28;20641;-86
2024/02/26 09:30:10;;;;;;;2.70;1.60;;;;;;;;;;4996253;28;20501;-82
2024/02/26 09:32:56;;;;;;;7.97;2.00;;;;;;;;;;5002885;28;20399;-82
2024/02/26 09:35:40;;;;;;;3.75;1.92;;;;;;;;;;4993063;28;20329;-83
2024/02/26 09:38:24;;;;;;;3.50;1.92;;;;;;;;;;4997325;28;20140;-83
2024/02/26 09:41:16;;;;;;;4.15;2.10;;;;;;;;;;4987601;28;20026;-84
2024/02/26 09:44:02;;;;;;;4.35;2.28;;;;;;;;;;4990209;28;20496;-82
2024/02/26 09:46:51;;;;;;;6.45;2.65;;;;;;;;;;4996411;28;20030;-82
2024/02/26 09:49:36;;;;;;;3.30;2.17;;;;;;;;;;5002711;28;20034;-83
2024/02/26 09:52:23;;;;;;;5.90;2.60;;;;;;;;;;5003635;28;20018;-80
2024/02/26 09:55:11;;;;;;;5.95;2.80;;;;;;;;;;4991042;28;20626;-82
2024/02/26 09:58:00;;;;;;;5.45;2.55;;;;;;;;;;5020935;28;20155;-84
2024/02/26 10:00:51;;;;;;;5.28;2.88;;;;;;;;;;5002929;28;20030;-84
2024/02/26 10:03:41;;;;;;;9.50;3.75;;;;;;;;;;5005536;28;20509;-86
2024/02/26 10:06:30;;;;;;;5.63;3.20;;;;;;;;;;5023847;28;20029;-85
2024/02/26 10:09:16;;;;;;;7.40;3.50;;;;;;;;;;5022260;28;20037;-83
2024/02/26 10:12:01;;;;;;;5.43;2.88;;;;;;;;;;5011656;28;20148;-84
2024/02/26 10:14:50;;;;;;;10.32;2.65;;;;;;;;;;5020804;28;20037;-84
2024/02/26 10:17:36;;;;;;;5.80;2.50;;;;;;;;;;5015800;28;20026;-84
2024/02/26 10:20:23;;;;;;;4.72;2.60;;;;;;;;;;5001407;28;20030;-84
2024/02/26 10:23:14;;;;;;;5.38;2.90;;;;;;;;;;5005859;28;20041;-84
2024/02/26 10:25:58;;;;;;;5.78;2.90;;;;;;;;;;5009056;28;20052;-84
2024/02/26 10:28:43;;;;;;;6.78;2.90;;;;;;;;;;5010197;28;20033;-84
2024/02/26 10:31:29;;;;;;;5.28;3.00;;;;;;;;;;5014289;28;20049;-85
2024/02/26 10:34:14;;;;;;;5.95;2.80;;;;;;;;;;5011261;28;20026;-86
2024/02/26 10:37:01;;;;;;;8.23;3.05;;;;;;;;;;5022971;28;20037;-85
2024/02/26 10:39:47;;;;;;;7.28;3.17;;;;;;;;;;5006451;28;20025;-79
2024/02/26 10:42:32;;;;;;;7.95;3.88;;;;;;;;;;5026655;28;20056;-80
2024/02/26 10:45:18;;;;;;;7.32;2.95;;;;;;;;;;5021206;28;20502;-78
2024/02/26 10:48:04;;;;;;;9.10;3.00;;;;;;;;;;5011555;28;20459;-79
2024/02/26 10:50:50;;;;;;;6.68;2.92;;;;;;;;;;5016973;28;20323;-76
2024/02/26 10:53:36;;;;;;;5.00;2.85;;;;;;;;;;5014453;28;20053;-78
2024/02/26 10:56:21;;;;;;;9.00;2.80;;;;;;;;;;5009973;28;20348;-81
2024/02/26 10:59:07;;;;;;;6.35;2.45;;;;;;;;;;5020155;28;20028;-81
2024/02/26 11:01:54;;;;;;;6.20;2.50;;;;;;;;;;4994160;28;20030;-84
2024/02/26 11:04:39;;;;;;;8.45;3.65;;;;;;;;;;5011973;28;20424;-83
2024/02/26 11:07:25;;;;;;;5.60;3.10;;;;;;;;;;5023570;28;20116;-84
2024/02/26 11:10:11;;;;;;;4.57;2.70;;;;;;;;;;4991290;28;20038;-83
2024/02/26 11:12:59;;;;;;;8.30;3.45;;;;;;;;;;4993996;28;20046;-83
2024/02/26 11:15:48;;;;;;;6.55;3.20;;;;;;;;;;5000908;28;20093;-81
2024/02/26 11:18:33;;;;;;;5.87;2.80;;;;;;;;;;5024964;28;20020;-83
2024/02/26 11:21:19;;;;;;;6.18;2.92;;;;;;;;;;5011166;28;20018;-82
2024/02/26 11:24:08;;;;;;;8.77;2.70;;;;;;;;;;4994141;28;20021;-81
2024/02/26 11:26:58;;;;;;;5.63;2.33;;;;;;;;;;5006694;28;20025;-84
2024/02/26 11:29:46;;;;;;;5.15;2.25;;;;;;;;;;5024374;28;20237;-82
2024/02/26 11:32:32;;;;;;;4.22;2.03;;;;;;;;;;5005840;28;20120;-82
2024/02/26 11:35:18;;;;;;;4.13;2.17;;;;;;;;;;4999732;28;20034;-82
2024/02/26 11:38:04;;;;;;;5.38;2.35;;;;;;;;;;5003719;28;20033;-84
2024/02/26 11:40:50;;;;;;;6.43;2.50;;;;;;;;;;5008507;28;20026;-83
2024/02/26 11:43:49;;;;;;;4.05;2.33;;;;;;;;;;5005898;28;20030;-85
2024/02/26 11:46:42;;;;;;;6.97;2.92;;;;;;;;;;5005475;28;20091;-83
2024/02/26 11:49:27;;;;;;;6.63;2.70;;;;;;;;;;5008278;28;20041;-83
2024/02/26 11:52:13;;;;;;;4.85;2.33;;;;;;;;;;5012753;28;20056;-81
2024/02/26 11:54:59;;;;;;;3.88;2.10;;;;;;;;;;5006423;28;20516;-82
2024/02/26 11:57:44;;;;;;;3.90;1.92;;;;;;;;;;5006082;28;20033;-82
2024/02/26 12:00:32;;;;;;;3.45;1.98;;;;;;;;;;4999124;28;20026;-82
2024/02/26 12:03:18;;;;;;;4.97;2.20;;;;;;;;;;4992102;28;20057;-83
2024/02/26 12:06:03;;;;;;;6.38;3.22;;;;;;;;;;4998747;28;20033;-83
2024/02/26 12:08:49;;;;;;;6.47;2.28;;;;;;;;;;4997260;28;20478;-83
2024/02/26 12:11:38;;;;;;;3.97;1.92;;;;;;;;;;5013670;28;20946;-83
2024/02/26 12:14:26;;;;;;;5.80;1.90;;;;;;;;;;5014336;28;20037;-81
2024/02/26 12:17:22;;;;;;;4.55;1.73;;;;;;;;;;5012052;28;20022;-81
2024/02/26 12:20:11;;;;;;;2.95;2.00;;;;;;;;;;5025762;28;20087;-81
2024/02/26 12:22:56;;;;;;;3.25;1.83;;;;;;;;;;5012285;28;20383;-80
2024/02/26 12:25:44;;;;;;;4.80;2.35;;;;;;;;;;4993147;28;20022;-83
2024/02/26 12:28:29;;;;;;;4.65;2.10;;;;;;;;;;5008741;28;20040;-82
2024/02/26 12:31:14;;;;;;;3.50;2.00;;;;;;;;;;5007399;28;20033;-83
2024/02/26 12:34:00;;;;;;;6.15;2.53;;;;;;;;;;5011193;28;20498;-82
2024/02/26 12:36:45;;;;;;;6.03;2.03;;;;;;;;;;5014658;28;20037;-81
2024/02/26 12:39:32;;;;;;;4.72;1.70;;;;;;;;;;5016743;28;20122;-84
2024/02/26 12:42:17;;;;;;;5.00;2.22;;;;;;;;;;5010909;28;20029;-83
2024/02/26 12:45:07;;;;;;;5.55;2.50;;;;;;;;;;5007161;28;20072;-82
2024/02/26 12:47:52;;;;;;;;;;;;;;;;;;5016122;28;20187;-85
2024/02/26 12:50:38;;;;;;;10.65;2.70;;;;;;;;;;5019220;28;19914;-81
2024/02/26 12:53:23;;;;;;;4.90;2.63;;;;;;;;;;5022728;28;20175;-81
2024/02/26 12:56:09;;;;;;;5.70;2.50;;;;;;;;;;5008815;28;20029;-85
2024/02/26 12:58:54;;;;;;;4.07;2.30;;;;;;;;;;5020644;28;20021;-86
2024/02/26 13:01:39;;;;;;;5.40;2.03;;;;;;;;;;5029751;28;20076;-85
2024/02/26 13:04:25;;;;;;;5.40;2.90;;;;;;;;;;5018378;28;20472;-80
2024/02/26 13:07:17;;;;;;;12.73;3.38;;;;;;;;;;4999391;28;20029;-90
2024/02/26 13:10:02;;;;;;;5.30;2.58;;;;;;;;;;5008703;28;20040;-88
2024/02/26 13:13:09;;;;;;;3.97;2.20;;;;;;;;;;5013372;28;20045;-89
2024/02/26 13:16:08;;;;;;;4.63;2.97;;;;;;;;;;5013810;28;20041;-88
2024/02/26 13:18:53;;;;;;;9.32;3.15;;;;;;;;;;5032133;28;20498;-85
2024/02/26 13:21:41;;;;;;;3.85;2.28;;;;;;;;;;5018722;28;20082;-86
2024/02/26 13:24:26;;;;;;;6.93;2.70;;;;;;;;;;5019266;28;20104;-86
2024/02/26 13:27:11;;;;;;;5.78;2.20;;;;;;;;;;5004105;28;20160;-86
2024/02/26 13:30:08;;;;;;;5.75;2.63;;;;;;;;;;5021207;28;20436;-88
2024/02/26 13:32:54;;;;;;;6.25;2.13;;;;;;;;;;5016075;28;20024;-85
2024/02/26 13:35:39;;;;;;;4.72;2.20;;;;;;;;;;5009947;28;20025;-84
2024/02/26 13:38:25;;;;;;;3.58;2.05;;;;;;;;;;5032284;28;20021;-84
2024/02/26 13:41:10;;;;;;;3.78;1.83;;;;;;;;;;5019076;28;20392;-84
2024/02/26 13:43:57;;;;;;;3.55;1.95;;;;;;;;;;5013962;28;20029;-84
2024/02/26 13:46:43;;;;;;;4.80;2.08;;;;;;;;;;5011932;28;20167;-83
2024/02/26 13:49:28;;;;;;;3.15;1.95;;;;;;;;;;5018383;28;20021;-85
2024/02/26 13:52:13;;;;;;;3.85;1.92;;;;;;;;;;5035475;28;20037;-84
2024/02/26 13:54:59;;;;;;;9.35;2.33;;;;;;;;;;5015274;28;20090;-85
2024/02/26 13:57:44;;;;;;;1.85;1.20;;;;;;;;;;5011185;28;20043;-88
2024/02/26 14:00:33;;;;;;;2.13;1.30;;;;;;;;;;5025690;28;20017;-85
2024/02/26 14:03:19;;;;;;;7.22;1.42;;;;;;;;;;5050275;28;20022;-83
2024/02/26 14:06:03;;;;;;;1.70;1.13;;;;;;;;;;5059824;28;20052;-83
2024/02/26 14:08:47;;;;;;;4.72;1.50;;;;;;;;;;5050027;28;20036;-84
2024/02/26 14:11:33;;;;;;;1.88;1.20;;;;;;;;;;5038487;28;20032;-84
2024/02/26 14:14:19;;;;;;;4.45;1.35;;;;;;;;;;5053134;28;20085;-81
2024/02/26 14:17:04;;;;;;;1.40;0.95;;;;;;;;;;5028059;28;20079;-83
2024/02/26 14:19:50;;;;;;;1.45;1.00;;;;;;;;;;5042251;28;20258;-83
2024/02/26 14:22:38;;;;;;;4.38;1.85;;;;;;;;;;5033814;28;20025;-84
2024/02/26 14:25:24;;;;;;;2.45;1.10;;;;;;;;;;5027922;28;20041;-83
2024/02/26 14:28:09;;;;;;;2.10;1.30;;;;;;;;;;5027073;28;20091;-83
2024/02/26 14:30:55;;;;;;;0.80;0.80;;;;;;;;;;5029563;28;20445;-83
2024/02/26 14:33:40;;;;;;;2.15;1.08;;;;;;;;;;5021348;28;20025;-78
2024/02/26 14:36:26;;;;;;;1.98;1.10;;;;;;;;;;5031106;28;20472;-81
2024/02/26 14:39:12;;;;;;;1.02;0.80;;;;;;;;;;5036329;28;20071;-80
2024/02/26 14:41:58;;;;;;;1.50;0.82;;;;;;;;;;5035327;28;20063;-82
2024/02/26 14:44:44;;;;;;;1.08;0.95;;;;;;;;;;5037930;28;20064;-83
2024/02/26 14:47:29;;;;;;;2.13;0.90;;;;;;;;;;5024350;28;20023;-81
2024/02/26 14:50:20;;;;;;;1.08;0.93;;;;;;;;;;5009376;28;20072;-81
2024/02/26 14:53:05;;;;;;;1.58;1.13;;;;;;;;;;5021312;28;20022;-82
2024/02/26 14:55:50;;;;;;;2.45;1.15;;;;;;;;;;5017034;28;20511;-82
2024/02/26 14:58:35;;;;;;;1.13;0.93;;;;;;;;;;5001575;28;20080;-84
2024/02/26 15:01:21;;;;;;;1.58;1.00;;;;;;;;;;5023643;28;20013;-81
2024/02/26 15:04:06;;;;;;;1.17;1.00;;;;;;;;;;5033578;28;20113;-84
2024/02/26 15:06:52;;;;;;;1.67;1.23;;;;;;;;;;5019184;28;20040;-82
2024/02/26 15:09:38;;;;;;;1.83;1.38;;;;;;;;;;5011153;28;20013;-82
2024/02/26 15:12:23;;;;;;;1.70;1.13;;;;;;;;;;5011698;28;20046;-82
2024/02/26 15:15:08;;;;;;;2.33;1.17;;;;;;;;;;5015166;28;20095;-83
2024/02/26 15:17:53;;;;;;;1.73;1.10;;;;;;;;;;5019494;28;20029;-81
2024/02/26 15:20:39;;;;;;;3.83;1.98;;;;;;;;;;5010433;28;20026;-83
2024/02/26 15:23:24;;;;;;;2.22;1.38;;;;;;;;;;4998878;28;20032;-84
2024/02/26 15:26:09;;;;;;;3.33;1.30;;;;;;;;;;5016867;28;20037;-83
2024/02/26 15:28:55;;;;;;;3.25;1.45;;;;;;;;;;5014442;28;20021;-84
2024/02/26 15:31:40;;;;;;;2.35;1.55;;;;;;;;;;5012691;28;20026;-84
2024/02/26 15:34:25;;;;;;;2.78;1.50;;;;;;;;;;5006482;28;20072;-83
2024/02/26 15:37:11;;;;;;;2.55;1.30;;;;;;;;;;5016147;28;20025;-83
2024/02/26 15:39:56;;;;;;;3.35;1.55;;;;;;;;;;5033390;28;20028;-84
2024/02/26 15:42:41;;;;;;;2.60;1.50;;;;;;;;;;5018660;28;20033;-84
2024/02/26 15:45:31;;;;;;;1.80;1.30;;;;;;;;;;5010531;28;20034;-85
2024/02/26 15:48:19;;;;;;;2.42;1.40;;;;;;;;;;5002051;28;20055;-83
2024/02/26 15:51:05;;;;;;;2.85;1.63;;;;;;;;;;5013846;28;20032;-82
2024/02/26 15:53:50;;;;;;;3.28;1.70;;;;;;;;;;5011525;28;20021;-84
2024/02/26 15:56:37;;;;;;;4.13;2.00;;;;;;;;;;5002951;28;20060;-83
2024/02/26 15:59:22;;;;;;;2.75;1.73;;;;;;;;;;5027257;28;20053;-84
2024/02/26 16:02:09;;;;;;;5.85;1.83;;;;;;;;;;5016726;28;20056;-84
2024/02/26 16:04:55;;;;;;;3.72;1.88;;;;;;;;;;5032342;28;20416;-84
2024/02/26 16:07:43;;;;;;;3.58;1.60;;;;;;;;;;5003155;28;20025;-84
2024/02/26 16:10:29;;;;;;;5.65;2.50;;;;;;;;;;5017928;28;20057;-83
2024/02/26 16:13:15;;;;;;;2.92;1.60;;;;;;;;;;5008857;28;20038;-83
2024/02/26 16:16:06;;;;;;;2.13;1.50;;;;;;;;;;5007998;28;20130;-82
2024/02/26 16:18:53;;;;;;;4.15;1.73;;;;;;;;;;5011890;28;20029;-82
2024/02/26 16:21:39;;;;;;;3.83;1.92;;;;;;;;;;5011135;28;20851;-83
2024/02/26 16:24:25;;;;;;;3.88;2.13;;;;;;;;;;5008973;28;20468;-82
2024/02/26 16:27:10;;;;;;;2.50;1.60;;;;;;;;;;5026311;28;20060;-81
2024/02/26 16:29:56;;;;;;;2.78;1.60;;;;;;;;;;5000632;28;20040;-81
2024/02/26 16:32:43;;;;;;;5.32;1.77;;;;;;;;;;5003516;28;20029;-84
2024/02/26 16:35:28;;;;;;;3.75;1.70;;;;;;;;;;5014414;28;20029;-83